Time;durP1;ratioP1;P1;durP2;ratioP2;P2;SDS_P1;SDS_P2;PMS_P1;PMS_P2;Temp;Humidity;BMP_temperature;BMP_pressure;BME280_temperature;BME280_humidity;BME280_pressure;Samples;Min_cycle;Max_cycle;Signal;HPM_P1;HPM_P2
2023/08/25 04:58:52;;;;;;;51.50;28.45;;;18.00;99.90;;;;;;6230066;22;20043;-84
2023/08/25 05:01:36;;;;;;;44.72;26.92;;;17.80;99.90;;;;;;6219216;23;20021;-84
2023/08/25 05:05:07;;;;;;;;;;;;;;;;;;;;;
2023/08/25 05:07:45;;;;;;;48.83;28.95;;;18.00;99.90;;;;;;6149789;23;20016;-84
2023/08/25 05:10:17;;;;;;;53.72;30.40;;;18.10;99.90;;;;;;6243200;23;20015;-84
2023/08/25 05:12:43;;;;;;;53.97;31.00;;;18.50;99.90;;;;;;6217374;23;20022;-84
2023/08/25 05:15:40;;;;;;;59.60;32.75;;;18.20;99.90;;;;;;6244638;23;20024;-84
2023/08/25 05:18:18;;;;;;;66.78;35.53;;;18.30;99.90;;;;;;6217676;23;20445;-84
2023/08/25 05:20:59;;;;;;;70.05;37.60;;;18.30;99.90;;;;;;6217025;23;20023;-84
2023/08/25 05:24:10;;;;;;;72.40;35.33;;;18.40;99.90;;;;;;6243829;23;20074;-84
2023/08/25 05:26:51;;;;;;;72.35;37.88;;;18.40;99.90;;;;;;6097913;23;20018;-84
2023/08/25 05:29:44;;;;;;;69.40;36.08;;;18.40;99.90;;;;;;6121383;23;20155;-84
2023/08/25 05:32:15;;;;;;;64.40;35.67;;;18.40;99.90;;;;;;6098444;23;20018;-85
2023/08/25 05:34:44;;;;;;;66.88;35.72;;;18.40;99.90;;;;;;6121988;23;20125;-84
2023/08/25 05:37:45;;;;;;;69.95;35.10;;;18.40;99.90;;;;;;6097030;23;20457;-84
2023/08/25 05:40:17;;;;;;;66.32;33.45;;;18.50;99.90;;;;;;6016270;23;20018;-83
2023/08/25 05:42:50;;;;;;;76.05;35.35;;;18.60;99.90;;;;;;6097164;23;20026;-82
2023/08/25 05:45:30;;;;;;;71.15;33.65;;;18.60;99.90;;;;;;6097255;23;20439;-84
2023/08/25 05:48:05;;;;;;;61.40;33.20;;;18.60;99.90;;;;;;6098131;23;20022;-83
2023/08/25 05:50:31;;;;;;;62.55;33.72;;;18.60;99.90;;;;;;6142529;23;20099;-83
2023/08/25 05:53:06;;;;;;;66.82;33.95;;;18.60;99.90;;;;;;6216771;23;20063;-84
2023/08/25 05:55:32;;;;;;;64.43;34.13;;;18.70;99.90;;;;;;6219066;23;20016;-83
2023/08/25 05:57:58;;;;;;;56.75;33.25;;;18.70;99.90;;;;;;6218465;23;20086;-83
2023/08/25 06:00:45;;;;;;;58.97;33.10;;;18.70;99.90;;;;;;6218405;23;20012;-84
2023/08/25 06:03:13;;;;;;;56.05;32.97;;;18.90;99.90;;;;;;6246588;23;20348;-86
2023/08/25 06:06:00;;;;;;;57.33;33.42;;;18.80;99.90;;;;;;6244876;23;20352;-84
2023/08/25 06:08:29;;;;;;;60.45;34.60;;;18.90;99.90;;;;;;6246646;23;20023;-83
2023/08/25 06:11:04;;;;;;;57.22;33.08;;;18.90;99.90;;;;;;6219237;23;20340;-84
2023/08/25 06:13:41;;;;;;;59.53;32.28;;;18.90;99.90;;;;;;6218847;23;20020;-84
2023/08/25 06:16:28;;;;;;;56.53;33.03;;;18.80;99.90;;;;;;6219504;23;20454;-84
2023/08/25 06:20:08;;;;;;;52.83;32.88;;;18.90;99.90;;;;;;6218511;23;20110;-84
2023/08/25 06:22:45;;;;;;;57.03;32.80;;;19.00;99.90;;;;;;6041006;23;20074;-84
2023/08/25 06:25:49;;;;;;;50.63;32.25;;;19.10;99.90;;;;;;6018004;23;20021;-84
2023/08/25 06:31:41;;;;;;;52.47;31.85;;;19.10;99.90;;;;;;6188456;23;20330;-86
2023/08/25 06:34:27;;;;;;;;;;;;;;;;;;;;;
2023/08/25 06:51:19;;;;;;;49.22;31.27;;;19.50;99.90;;;;;;6217929;23;20024;-86
2023/08/25 06:53:54;;;;;;;47.65;31.17;;;19.50;99.90;;;;;;6218238;23;20012;-84
2023/08/25 06:56:24;;;;;;;46.58;30.33;;;19.50;99.90;;;;;;6219360;23;20044;-85
2023/08/25 06:58:50;;;;;;;44.17;29.90;;;19.60;99.90;;;;;;6219901;23;20070;-84
2023/08/25 07:01:22;;;;;;;45.45;30.00;;;19.60;99.90;;;;;;6217135;23;20127;-83
2023/08/25 07:04:10;;;;;;;45.75;29.60;;;19.60;99.90;;;;;;6219098;23;20021;-83
2023/08/25 07:06:44;;;;;;;43.58;29.10;;;19.80;99.90;;;;;;6218483;23;20012;-83
2023/08/25 07:09:31;;;;;;;37.80;27.38;;;20.10;99.90;;;;;;6218646;23;20109;-84
2023/08/25 07:12:11;;;;;;;39.08;28.00;;;19.80;99.90;;;;;;6218690;23;20467;-84
2023/08/25 07:15:25;;;;;;;42.60;28.08;;;19.90;99.90;;;;;;6218714;23;20464;-84
2023/08/25 07:17:50;;;;;;;38.95;27.42;;;19.70;99.90;;;;;;6215088;23;20016;-84
2023/08/25 07:20:27;;;;;;;39.60;28.85;;;20.00;99.90;;;;;;6245556;23;20340;-84
2023/08/25 07:22:52;;;;;;;40.65;27.50;;;20.00;99.90;;;;;;6217978;23;20075;-84
2023/08/25 07:25:18;;;;;;;41.53;27.98;;;20.10;99.90;;;;;;6217995;23;20453;-83
2023/08/25 07:28:03;;;;;;;38.75;27.35;;;20.10;99.90;;;;;;6218352;23;20019;-83
2023/08/25 07:30:33;;;;;;;38.03;26.80;;;20.20;99.90;;;;;;6218440;23;20062;-83
2023/08/25 07:33:01;;;;;;;35.72;26.73;;;20.40;99.90;;;;;;6246169;23;20016;-83
2023/08/25 07:35:41;;;;;;;36.08;26.92;;;20.50;99.90;;;;;;6216090;23;20008;-83
2023/08/25 07:38:34;;;;;;;36.60;26.17;;;20.60;99.90;;;;;;6215258;23;20020;-84
2023/08/25 07:41:22;;;;;;;35.90;26.27;;;20.60;99.90;;;;;;6241916;23;20024;-81
2023/08/25 07:43:54;;;;;;;35.38;25.40;;;20.70;99.90;;;;;;6212394;23;20024;-84
2023/08/25 07:46:19;;;;;;;36.80;26.38;;;20.70;99.90;;;;;;6215761;23;20020;-85
2023/08/25 07:48:45;;;;;;;37.70;26.05;;;20.70;99.90;;;;;;6244765;23;20015;-83
2023/08/25 07:51:26;;;;;;;36.72;25.98;;;20.80;99.90;;;;;;6243708;23;20016;-82
2023/08/25 07:54:07;;;;;;;35.38;26.00;;;20.80;99.90;;;;;;6245288;23;20020;-86
2023/08/25 07:56:45;;;;;;;38.13;26.92;;;20.80;99.90;;;;;;6218395;23;20359;-85
2023/08/25 07:59:11;;;;;;;36.63;27.65;;;21.20;99.90;;;;;;6217825;23;20087;-85
2023/08/25 08:02:26;;;;;;;38.67;27.13;;;20.80;99.90;;;;;;6243196;23;20101;-85
2023/08/25 08:05:17;;;;;;;37.35;27.00;;;20.70;99.90;;;;;;6244069;23;20027;-86
2023/08/25 08:07:55;;;;;;;37.08;26.55;;;20.70;99.90;;;;;;6244644;23;20503;-85
2023/08/25 08:10:21;;;;;;;37.67;26.98;;;20.60;99.90;;;;;;6218550;23;20073;-85
2023/08/25 08:13:00;;;;;;;38.20;26.58;;;20.60;99.90;;;;;;6244705;23;20012;-85
2023/08/25 08:15:26;;;;;;;38.78;26.48;;;20.50;99.90;;;;;;6218901;23;20016;-85
2023/08/25 08:17:52;;;;;;;34.90;25.02;;;20.60;99.90;;;;;;6218101;23;20023;-85
2023/08/25 08:20:18;;;;;;;36.03;25.55;;;20.70;99.90;;;;;;6217358;23;20046;-85
2023/08/25 08:22:59;;;;;;;38.85;26.48;;;20.80;99.90;;;;;;6218193;23;20020;-85
2023/08/25 08:25:25;;;;;;;36.55;26.40;;;20.80;99.90;;;;;;6218187;23;20008;-85
2023/08/25 08:27:51;;;;;;;39.70;26.45;;;20.80;99.90;;;;;;6245317;23;20378;-85
2023/08/25 08:30:19;;;;;;;39.13;26.73;;;20.80;99.90;;;;;;6245164;23;20019;-85
2023/08/25 08:33:04;;;;;;;37.90;26.08;;;20.80;99.90;;;;;;6217189;23;20027;-85
2023/08/25 08:35:48;;;;;;;39.42;26.27;;;20.80;99.90;;;;;;6218656;23;20091;-85
2023/08/25 08:38:14;;;;;;;38.92;26.70;;;20.90;99.90;;;;;;6245629;23;20067;-85
2023/08/25 08:40:59;;;;;;;39.90;27.30;;;20.90;99.90;;;;;;6212487;23;20441;-85
2023/08/25 08:43:41;;;;;;;39.00;26.90;;;21.00;99.90;;;;;;6218169;23;20012;-85
2023/08/25 08:46:12;;;;;;;38.05;26.55;;;21.00;99.90;;;;;;6218256;23;20102;-85
2023/08/25 08:48:39;;;;;;;36.58;26.15;;;21.50;99.90;;;;;;6216389;22;20012;-85
2023/08/25 08:51:06;;;;;;;39.38;26.35;;;21.10;99.90;;;;;;6245511;23;20024;-85
2023/08/25 08:53:32;;;;;;;41.03;26.70;;;21.00;99.90;;;;;;6245162;23;20066;-85
2023/08/25 08:56:02;;;;;;;38.58;26.67;;;21.00;99.90;;;;;;6245042;23;20056;-86
2023/08/25 08:58:42;;;;;;;39.15;26.23;;;20.90;99.90;;;;;;6218057;23;20012;-86
2023/08/25 09:01:10;;;;;;;40.85;26.42;;;21.00;99.90;;;;;;6217090;23;20349;-84
2023/08/25 09:03:52;;;;;;;38.40;26.25;;;21.00;99.90;;;;;;6218231;23;20008;-85
2023/08/25 09:06:18;;;;;;;42.05;28.20;;;21.20;99.90;;;;;;6218144;23;20020;-84
2023/08/25 09:08:52;;;;;;;39.63;27.27;;;21.00;99.90;;;;;;6242883;23;20020;-83
2023/08/25 09:11:18;;;;;;;37.50;26.33;;;20.90;99.90;;;;;;6245277;23;20091;-84
2023/08/25 09:13:57;;;;;;;38.58;27.63;;;21.00;99.90;;;;;;6244935;23;20020;-84
2023/08/25 09:16:38;;;;;;;37.25;24.90;;;21.00;99.90;;;;;;6244191;23;20340;-83
2023/08/25 09:19:22;;;;;;;38.63;26.40;;;21.10;99.90;;;;;;6216663;22;20503;-83
2023/08/25 09:21:48;;;;;;;36.88;26.85;;;21.10;99.90;;;;;;6217024;23;20399;-83
2023/08/25 09:24:36;;;;;;;38.28;27.20;;;21.10;99.90;;;;;;6218228;23;20437;-83
2023/08/25 09:27:02;;;;;;;37.38;26.90;;;21.10;99.90;;;;;;6218729;23;20472;-83
2023/08/25 09:29:59;;;;;;;37.83;26.92;;;21.10;99.90;;;;;;6218526;23;20017;-83
2023/08/25 09:32:31;;;;;;;40.03;28.17;;;21.00;99.90;;;;;;6219957;23;20027;-83
2023/08/25 09:35:22;;;;;;;38.95;27.42;;;21.10;99.90;;;;;;6219610;23;20016;-83
2023/08/25 09:37:48;;;;;;;37.92;27.08;;;21.10;99.90;;;;;;6217420;23;20031;-83
2023/08/25 09:40:33;;;;;;;38.45;26.65;;;21.00;99.90;;;;;;6246983;23;20033;-84
2023/08/25 09:43:17;;;;;;;38.63;26.98;;;21.00;99.90;;;;;;6245165;23;20352;-84
2023/08/25 09:45:46;;;;;;;43.53;28.85;;;21.00;99.90;;;;;;6218150;23;20472;-84
2023/08/25 09:48:16;;;;;;;43.40;30.17;;;21.00;99.90;;;;;;6218569;23;20587;-83
2023/08/25 09:50:57;;;;;;;38.60;27.45;;;20.90;99.90;;;;;;6240725;23;20018;-84
2023/08/25 09:53:33;;;;;;;41.78;28.13;;;20.90;99.90;;;;;;6219442;23;20020;-82
2023/08/25 09:56:02;;;;;;;41.13;28.52;;;20.90;99.90;;;;;;6219442;23;20298;-82
2023/08/25 09:58:30;;;;;;;39.55;27.13;;;20.90;99.90;;;;;;6219025;23;20353;-85
2023/08/25 10:00:58;;;;;;;38.25;27.23;;;20.80;99.90;;;;;;6245812;23;20322;-85
2023/08/25 10:03:24;;;;;;;42.13;27.63;;;20.80;99.90;;;;;;6246061;23;20039;-84
2023/08/25 10:05:50;;;;;;;36.22;26.45;;;20.70;99.90;;;;;;6217705;23;20391;-84
2023/08/25 10:08:17;;;;;;;38.67;26.50;;;20.70;99.90;;;;;;6246199;23;20090;-83
2023/08/25 10:10:44;;;;;;;40.85;27.08;;;20.70;99.90;;;;;;6219390;23;20329;-85
2023/08/25 10:13:14;;;;;;;55.63;30.55;;;20.60;99.90;;;;;;6245175;23;20016;-86
2023/08/25 10:15:47;;;;;;;51.63;31.20;;;20.50;99.90;;;;;;6246009;23;20009;-86
2023/08/25 10:18:27;;;;;;;51.67;31.75;;;20.50;99.90;;;;;;6218065;23;20024;-85
2023/08/25 10:21:07;;;;;;;50.30;30.77;;;20.40;99.90;;;;;;6188247;23;20067;-85
2023/08/25 10:24:02;;;;;;;60.47;32.70;;;20.30;99.90;;;;;;6213318;23;20043;-85
2023/08/25 10:32:08;;;;;;;58.08;32.40;;;20.60;99.90;;;;;;6245011;23;20036;-85
2023/08/25 10:34:46;;;;;;;58.65;33.42;;;20.70;99.90;;;;;;6219142;23;20016;-85
2023/08/25 10:37:40;;;;;;;62.42;34.17;;;20.70;99.90;;;;;;6218785;23;20027;-85
2023/08/25 10:40:18;;;;;;;60.53;33.33;;;20.70;99.90;;;;;;6217801;23;20044;-86
2023/08/25 10:42:43;;;;;;;63.15;34.13;;;20.80;99.90;;;;;;6246342;23;20016;-85
2023/08/25 10:45:15;;;;;;;57.60;33.85;;;20.80;99.90;;;;;;6219578;23;20487;-85
2023/08/25 10:47:53;;;;;;;54.50;31.15;;;20.80;99.90;;;;;;6217972;23;20016;-85
2023/08/25 10:50:22;;;;;;;59.60;32.15;;;20.70;99.90;;;;;;6217618;23;20078;-84
2023/08/25 10:53:44;;;;;;;53.30;29.90;;;20.80;99.90;;;;;;6242469;22;20016;-87
2023/08/25 10:59:30;;;;;;;43.05;26.67;;;20.70;99.90;;;;;;6218235;23;19916;-83
2023/08/25 11:01:58;;;;;;;48.15;28.25;;;20.80;99.90;;;;;;6217347;23;20460;-83
2023/08/25 11:04:25;;;;;;;46.15;27.50;;;20.90;99.90;;;;;;6218620;23;20016;-83
2023/08/25 11:07:00;;;;;;;50.63;31.02;;;21.00;99.90;;;;;;6245471;23;20012;-83
2023/08/25 11:09:32;;;;;;;50.60;30.55;;;21.20;99.90;;;;;;6217732;23;20015;-84
2023/08/25 11:12:08;;;;;;;55.25;32.88;;;21.20;99.90;;;;;;6245102;23;20360;-83
2023/08/25 11:14:44;;;;;;;44.20;28.63;;;21.00;99.90;;;;;;6244424;23;20009;-84
2023/08/25 11:17:13;;;;;;;39.17;25.77;;;21.10;99.90;;;;;;6218810;23;20405;-84
2023/08/25 11:19:54;;;;;;;39.70;25.42;;;21.10;99.90;;;;;;6245519;23;20123;-84
2023/08/25 11:22:35;;;;;;;34.05;22.67;;;21.10;99.90;;;;;;6218170;23;20099;-84
2023/08/25 11:25:26;;;;;;;39.92;24.02;;;21.00;99.90;;;;;;6218524;23;20052;-83
2023/08/25 11:28:02;;;;;;;33.05;21.65;;;20.90;99.90;;;;;;6218275;23;20016;-84
2023/08/25 11:30:38;;;;;;;;;;;;;;;;;;;;;
2023/08/25 11:33:25;;;;;;;23.50;15.02;;;21.00;99.90;;;;;;6114342;22;20096;-84
2023/08/25 11:40:00;;;;;;;17.65;10.57;;;20.80;99.90;;;;;;6035173;23;20034;-84
2023/08/25 11:43:32;;;;;;;18.00;10.80;;;20.80;99.90;;;;;;6011709;23;20031;-84
2023/08/25 11:46:07;;;;;;;17.17;9.05;;;20.70;99.90;;;;;;5974584;23;20027;-85
2023/08/25 11:48:58;;;;;;;14.75;8.27;;;20.70;99.90;;;;;;6012812;23;20023;-85
2023/08/25 11:51:30;;;;;;;13.00;7.45;;;20.60;99.90;;;;;;6052116;22;20122;-86
2023/08/25 11:54:48;;;;;;;13.80;8.27;;;20.70;99.90;;;;;;6276205;22;20043;-86
2023/08/25 12:08:43;;;;;;;16.02;9.48;;;20.80;99.90;;;;;;6224297;22;20024;-86
2023/08/25 12:18:13;;;;;;;14.25;9.05;;;20.80;99.90;;;;;;6228458;22;20050;-88
2023/08/25 12:21:00;;;;;;;14.98;9.43;;;21.10;99.90;;;;;;6246353;23;20031;-88
2023/08/25 12:24:17;;;;;;;15.48;9.27;;;21.20;99.90;;;;;;6138526;22;20056;-89
2023/08/25 12:26:46;;;;;;;15.10;9.18;;;21.40;99.90;;;;;;6243653;23;20356;-88
2023/08/25 12:30:15;;;;;;;10.45;5.18;;;21.20;99.90;;;;;;6244562;22;20135;-88
2023/08/25 12:33:16;;;;;;;9.98;4.90;;;21.00;99.90;;;;;;6244331;23;20031;-88
2023/08/25 12:36:17;;;;;;;9.45;5.20;;;20.90;99.90;;;;;;6218704;23;20028;-86
2023/08/25 12:38:46;;;;;;;10.50;5.38;;;20.80;99.90;;;;;;6243426;23;20027;-87
2023/08/25 12:41:20;;;;;;;12.07;6.30;;;20.80;99.90;;;;;;6219082;23;20441;-86
2023/08/25 12:43:48;;;;;;;12.25;7.70;;;20.80;99.90;;;;;;6217077;23;20384;-86
2023/08/25 12:46:22;;;;;;;12.25;7.90;;;20.80;99.90;;;;;;6244329;23;20028;-86
2023/08/25 12:48:49;;;;;;;13.30;8.02;;;20.80;99.90;;;;;;6217854;23;20059;-86
2023/08/25 12:51:23;;;;;;;12.38;7.50;;;20.70;99.90;;;;;;6244890;23;20047;-86
2023/08/25 12:54:29;;;;;;;13.38;7.78;;;20.70;99.90;;;;;;6217150;23;20074;-86
2023/08/25 12:56:55;;;;;;;12.45;8.07;;;20.60;99.90;;;;;;6245017;23;20019;-85
2023/08/25 12:59:27;;;;;;;12.32;7.95;;;20.50;99.90;;;;;;6245385;23;20012;-84
2023/08/25 13:02:01;;;;;;;14.30;7.95;;;20.50;99.90;;;;;;6243861;23;20016;-85
2023/08/25 13:04:33;;;;;;;13.27;8.50;;;20.40;99.90;;;;;;6246915;23;20020;-85
2023/08/25 13:07:03;;;;;;;14.52;8.27;;;20.40;99.90;;;;;;6217699;23;20024;-85
2023/08/25 13:09:32;;;;;;;14.13;9.05;;;20.40;99.90;;;;;;6246006;23;20016;-85
2023/08/25 13:12:00;;;;;;;14.45;8.73;;;20.40;99.90;;;;;;6245642;23;20020;-86
2023/08/25 13:14:42;;;;;;;12.73;8.00;;;20.30;99.90;;;;;;6246548;23;20019;-87
2023/08/25 13:17:10;;;;;;;13.68;8.13;;;20.20;99.90;;;;;;6218931;23;20027;-87
2023/08/25 13:19:42;;;;;;;14.05;8.50;;;20.30;99.90;;;;;;6216815;23;20051;-87
2023/08/25 13:22:11;;;;;;;14.45;7.88;;;20.30;99.90;;;;;;6218324;23;20012;-87
2023/08/25 13:24:46;;;;;;;14.15;8.98;;;20.40;99.90;;;;;;6219099;23;20543;-87
2023/08/25 13:27:12;;;;;;;15.07;9.73;;;20.40;99.90;;;;;;6246532;22;20012;-87
2023/08/25 13:33:55;;;;;;;14.60;9.90;;;20.50;99.90;;;;;;6122996;23;20033;-86
2023/08/25 13:36:26;;;;;;;18.25;12.38;;;20.50;99.90;;;;;;6098662;23;20444;-87
2023/08/25 13:38:52;;;;;;;20.10;12.82;;;20.50;99.90;;;;;;6124084;23;20018;-87
2023/08/25 13:41:30;;;;;;;19.45;12.13;;;20.60;99.90;;;;;;6099927;23;20028;-87
2023/08/25 13:44:23;;;;;;;17.77;10.80;;;20.70;99.90;;;;;;6098787;23;20114;-86
2023/08/25 13:46:57;;;;;;;17.77;10.95;;;20.90;99.90;;;;;;6120873;22;20016;-88
2023/08/25 13:49:47;;;;;;;19.92;13.18;;;20.90;99.90;;;;;;6218855;22;20016;-88
2023/08/25 13:52:22;;;;;;;28.40;18.52;;;20.90;99.90;;;;;;6220755;23;20167;-88
2023/08/25 13:54:59;;;;;;;29.83;21.33;;;21.10;99.90;;;;;;6219364;23;20344;-88
2023/08/25 13:57:31;;;;;;;31.52;22.50;;;21.30;99.90;;;;;;6193756;23;20016;-88
2023/08/25 14:00:05;;;;;;;33.67;23.85;;;21.70;99.90;;;;;;6219381;23;20016;-88
2023/08/25 14:02:35;;;;;;;33.65;24.23;;;22.10;99.90;;;;;;6220050;23;20016;-88
2023/08/25 14:05:04;;;;;;;33.33;24.08;;;22.40;99.90;;;;;;6219391;23;20020;-88
2023/08/25 14:07:30;;;;;;;32.22;23.27;;;22.50;99.90;;;;;;6220227;23;20019;-88
2023/08/25 14:10:17;;;;;;;35.00;25.73;;;22.60;99.90;;;;;;6210264;22;20348;-88
2023/08/25 14:13:08;;;;;;;37.53;27.15;;;22.60;99.90;;;;;;6246478;23;20117;-88
2023/08/25 14:16:23;;;;;;;36.28;27.27;;;22.50;99.90;;;;;;6219058;23;20016;-88
2023/08/25 14:18:55;;;;;;;38.42;28.38;;;22.20;99.90;;;;;;6218167;23;20078;-86
2023/08/25 14:21:24;;;;;;;34.83;28.00;;;22.10;99.90;;;;;;6246522;23;20048;-88
2023/08/25 14:23:50;;;;;;;37.67;28.13;;;22.00;99.90;;;;;;6220902;23;20023;-89
2023/08/25 14:26:36;;;;;;;38.80;28.45;;;22.00;99.90;;;;;;6246209;23;20020;-87
2023/08/25 14:29:03;;;;;;;38.15;29.10;;;22.00;99.90;;;;;;6246391;23;20020;-88
2023/08/25 14:31:29;;;;;;;39.10;28.85;;;22.00;99.90;;;;;;6245343;23;20020;-88
2023/08/25 14:34:05;;;;;;;37.38;28.80;;;22.10;99.90;;;;;;6221106;23;20091;-88
2023/08/25 14:37:14;;;;;;;40.58;30.15;;;22.10;99.90;;;;;;6246621;23;20012;-88
2023/08/25 14:40:15;;;;;;;38.05;29.73;;;21.90;99.90;;;;;;6093555;23;20022;-90
2023/08/25 14:42:58;;;;;;;39.17;31.25;;;21.70;99.90;;;;;;6094855;23;20080;-87
2023/08/25 14:52:09;;;;;;;40.72;33.65;;;21.40;99.90;;;;;;6218719;23;20016;-88
2023/08/25 14:58:09;;;;;;;42.58;33.95;;;21.10;99.90;;;;;;6182978;23;20328;-89
2023/08/25 15:08:20;;;;;;;34.75;28.83;;;21.70;99.90;;;;;;6124666;23;20332;-87
2023/08/25 15:10:54;;;;;;;37.45;29.05;;;21.90;99.90;;;;;;6244226;23;20429;-87
2023/08/25 15:16:52;;;;;;;;;;;;;;;;;;;;;
2023/08/25 15:19:36;;;;;;;30.85;24.75;;;21.70;99.90;;;;;;6245737;23;20306;-88
2023/08/25 15:22:11;;;;;;;30.55;24.50;;;21.60;99.90;;;;;;6218165;23;20062;-87
2023/08/25 15:24:46;;;;;;;29.55;22.45;;;21.50;99.90;;;;;;6244812;23;20044;-87
2023/08/25 15:27:21;;;;;;;28.75;22.85;;;21.40;99.90;;;;;;6228028;23;20028;-87
2023/08/25 15:29:49;;;;;;;26.02;21.50;;;21.30;99.90;;;;;;6245851;23;20052;-87
2023/08/25 15:32:23;;;;;;;28.40;21.70;;;21.20;99.90;;;;;;6225004;23;20044;-87
2023/08/25 15:34:54;;;;;;;25.45;20.00;;;21.10;99.90;;;;;;6244449;23;20024;-85
2023/08/25 15:37:29;;;;;;;28.42;21.20;;;21.00;99.90;;;;;;6219417;23;20012;-85
2023/08/25 15:40:01;;;;;;;28.23;21.30;;;21.00;99.90;;;;;;6218323;23;20392;-84
2023/08/25 15:42:29;;;;;;;27.45;20.85;;;21.30;99.90;;;;;;6218398;23;20019;-86
2023/08/25 15:45:16;;;;;;;26.73;21.35;;;21.00;99.90;;;;;;6245226;23;20012;-86
2023/08/25 15:47:45;;;;;;;27.67;20.42;;;21.00;99.90;;;;;;6245594;23;20055;-86
2023/08/25 15:50:18;;;;;;;24.98;20.15;;;21.00;99.90;;;;;;6217682;23;20086;-86
2023/08/25 15:57:04;;;;;;;;;;;;;;;;;;;;;
2023/08/25 16:00:23;;;;;;;;;;;;;;;;;;;;;
2023/08/25 16:07:07;;;;;;;30.38;21.50;;;20.80;99.90;;;;;;6126490;23;20028;-87
2023/08/25 16:10:39;;;;;;;27.52;20.92;;;20.80;99.90;;;;;;6216155;23;20028;-87
2023/08/25 16:35:32;;;;;;;31.88;22.23;;;20.00;99.90;;;;;;6036146;23;20449;-85
2023/08/25 16:48:30;;;;;;;33.78;22.65;;;19.70;99.90;;;;;;6217172;23;20330;-85
2023/08/25 16:55:00;;;;;;;33.08;21.05;;;19.60;99.90;;;;;;6038387;23;20350;-83
2023/08/25 16:58:09;;;;;;;33.58;21.00;;;19.50;99.90;;;;;;6121953;23;20024;-85
2023/08/25 17:01:21;;;;;;;;;;;;;;;;;;;;;
2023/08/25 17:08:17;;;;;;;16.85;9.60;;;19.30;99.90;;;;;;6143953;23;20094;-82
2023/08/25 17:11:29;;;;;;;;;;;;;;;;;;;;;
2023/08/25 17:14:45;;;;;;;20.55;11.50;;;19.00;99.90;;;;;;6216991;22;20020;-84
2023/08/25 17:17:14;;;;;;;18.30;11.15;;;18.90;99.90;;;;;;6217252;23;20020;-83
2023/08/25 17:23:11;;;;;;;20.17;12.18;;;18.90;99.90;;;;;;6215150;23;20031;-83
2023/08/25 17:25:43;;;;;;;20.27;12.00;;;18.60;99.90;;;;;;6187081;23;20396;-84
2023/08/25 17:28:18;;;;;;;18.05;11.35;;;19.10;99.90;;;;;;6213744;23;20095;-83
2023/08/25 17:30:44;;;;;;;17.85;10.32;;;18.80;99.90;;;;;;6214394;23;20090;-83
2023/08/25 17:33:19;;;;;;;17.95;10.80;;;18.80;99.90;;;;;;6186611;23;20437;-83
2023/08/25 17:36:15;;;;;;;18.95;9.93;;;18.80;99.90;;;;;;6213878;23;20463;-83
2023/08/25 17:38:41;;;;;;;17.67;9.77;;;18.80;99.90;;;;;;6212217;23;20083;-83
2023/08/25 17:41:14;;;;;;;16.52;9.27;;;18.90;99.90;;;;;;6186837;23;20388;-83
2023/08/25 17:43:47;;;;;;;16.92;10.15;;;18.90;99.90;;;;;;6212182;23;20013;-83
2023/08/25 17:46:14;;;;;;;18.70;9.85;;;18.80;99.90;;;;;;6187553;23;20460;-83
2023/08/25 17:48:52;;;;;;;17.58;9.23;;;18.80;99.90;;;;;;6212847;23;20453;-83
2023/08/25 17:51:37;;;;;;;16.33;9.23;;;18.70;99.90;;;;;;6215077;23;20050;-84
2023/08/25 17:54:11;;;;;;;17.17;9.60;;;18.80;99.90;;;;;;6216507;23;20428;-84
2023/08/25 17:56:40;;;;;;;13.77;8.38;;;18.80;99.90;;;;;;6186350;23;20024;-84
2023/08/25 17:59:21;;;;;;;14.77;8.13;;;18.80;99.90;;;;;;6187579;23;20012;-82
2023/08/25 18:02:03;;;;;;;12.68;7.75;;;18.70;99.90;;;;;;6214535;23;20020;-82
2023/08/25 18:04:36;;;;;;;15.45;8.13;;;18.70;99.90;;;;;;6187955;23;20020;-82
2023/08/25 18:07:39;;;;;;;15.90;8.40;;;18.70;99.90;;;;;;6187933;23;20024;-83
2023/08/25 18:10:09;;;;;;;14.38;7.40;;;18.70;99.90;;;;;;6146975;23;20020;-83
2023/08/25 18:12:41;;;;;;;12.18;6.60;;;18.80;99.90;;;;;;6187858;23;20016;-83
2023/08/25 18:15:17;;;;;;;14.88;6.78;;;18.70;99.90;;;;;;6215108;23;20019;-83
2023/08/25 18:18:27;;;;;;;13.00;6.47;;;18.70;99.90;;;;;;6214775;23;20083;-82
2023/08/25 18:20:57;;;;;;;15.95;6.65;;;18.70;99.90;;;;;;6196940;23;20020;-82
2023/08/25 18:23:38;;;;;;;11.90;6.28;;;18.60;99.90;;;;;;6187252;23;20092;-82
2023/08/25 18:26:04;;;;;;;14.45;7.03;;;18.50;99.90;;;;;;6232894;22;20115;-83
2023/08/25 18:28:37;;;;;;;12.27;6.53;;;18.50;99.90;;;;;;6217903;23;20460;-83
2023/08/25 18:31:15;;;;;;;13.20;6.70;;;18.50;99.90;;;;;;6217367;23;20026;-82
2023/08/25 18:33:41;;;;;;;11.95;6.60;;;18.50;99.90;;;;;;6218075;23;20023;-82
2023/08/25 18:36:26;;;;;;;11.63;6.63;;;18.50;99.90;;;;;;6217508;23;20020;-82
2023/08/25 18:41:43;;;;;;;11.82;6.15;;;18.40;99.90;;;;;;6126089;23;20022;-82
2023/08/25 18:44:19;;;;;;;11.75;6.95;;;18.30;99.90;;;;;;6126261;23;20017;-82
2023/08/25 18:46:44;;;;;;;13.60;6.97;;;18.60;99.90;;;;;;6126279;23;20445;-84
2023/08/25 18:49:25;;;;;;;13.43;7.10;;;18.10;99.90;;;;;;6151667;23;20017;-83
2023/08/25 18:52:06;;;;;;;14.90;7.63;;;18.20;99.90;;;;;;6131101;23;20018;-82
2023/08/25 18:54:41;;;;;;;16.65;8.60;;;18.20;99.90;;;;;;6216466;23;20042;-82
2023/08/25 18:57:19;;;;;;;17.30;8.13;;;18.20;99.90;;;;;;6217564;23;20046;-81
2023/08/25 18:59:45;;;;;;;16.88;8.63;;;18.20;99.90;;;;;;6215937;23;20023;-82
2023/08/25 19:02:20;;;;;;;17.88;9.50;;;18.20;99.90;;;;;;6217673;23;20336;-82
2023/08/25 19:05:05;;;;;;;17.55;9.10;;;18.20;99.90;;;;;;6217008;23;20016;-86
2023/08/25 19:27:56;;;;;;;16.02;9.10;;;18.20;99.90;;;;;;6226382;23;20027;-86
2023/08/25 19:30:25;;;;;;;15.07;8.43;;;18.10;99.90;;;;;;6218519;23;20020;-86
2023/08/25 19:32:59;;;;;;;16.88;9.23;;;18.10;99.90;;;;;;6217134;23;20077;-86
2023/08/25 20:45:17;;;;;;;43.55;19.75;;;17.90;99.90;;;;;;6033543;23;20086;-86
2023/08/25 20:47:48;;;;;;;44.97;19.70;;;17.90;99.90;;;;;;6010159;23;20030;-87
2023/08/25 20:54:16;;;;;;;51.95;25.30;;;18.30;99.90;;;;;;6244885;22;20020;-86
2023/08/25 21:22:59;;;;;;;73.22;31.73;;;18.00;99.90;;;;;;6240623;22;20168;-89
2023/08/25 21:30:34;;;;;;;70.80;32.72;;;18.10;99.90;;;;;;6104533;23;20026;-87
2023/08/25 21:34:11;;;;;;;;;;;;;;;;;;;;;
2023/08/25 21:40:28;;;;;;;74.60;33.33;;;17.90;99.90;;;;;;6243001;22;20028;-86
2023/08/25 21:43:59;;;;;;;60.22;30.58;;;17.90;99.90;;;;;;6218932;23;20020;-86
2023/08/25 21:46:55;;;;;;;67.15;32.08;;;18.10;99.90;;;;;;6114073;23;20408;-86
2023/08/25 21:49:21;;;;;;;75.30;33.47;;;17.90;99.90;;;;;;6247534;22;20016;-87
2023/08/25 21:51:46;;;;;;;85.43;34.33;;;17.90;99.90;;;;;;6217292;22;20079;-86
2023/08/25 22:01:37;;;;;;;72.18;34.03;;;17.80;99.90;;;;;;6224954;23;20091;-87
2023/08/25 22:14:49;;;;;;;;;;;;;;;;;;;;;
2023/08/25 22:33:26;;;;;;;;;;;;;;;;;;;;;
2023/08/25 22:56:58;;;;;;;66.72;31.92;;;17.70;99.90;;;;;;6236100;22;20518;-89
2023/08/25 23:05:43;;;;;;;63.53;32.60;;;17.50;99.90;;;;;;6270124;22;20054;-86
2023/08/25 23:21:26;;;;;;;59.15;29.02;;;17.40;99.90;;;;;;6212460;23;20132;-87
2023/08/25 23:24:42;;;;;;;;;;;;;;;;;;;;;
2023/08/25 23:33:06;;;;;;;62.15;29.88;;;17.30;99.90;;;;;;6244303;22;20035;-86
2023/08/25 23:51:44;;;;;;;;;;;;;;;;;;;;;
2023/08/25 23:58:25;;;;;;;;;;;;;;;;;;;;;
